Terminal Aerodrome Forecast
Issued by NWS

Home | Current Version | Previous Version | Text Only | Print | Product List | Glossary On
Versions: 1 2 3 4 5 6 7 8 9 10 11 12 13 14 15 16 17 18 19 20 21 22 23 24 25 26 27 28 29 30 31 32 33 34 35 36
000
FTUS44 KFWD 190520
TAFFTW
TAF
KFTW 190520Z 1906/2006 12005KT P6SM SCT100
     FM191400 18009KT P6SM SCT050
     FM191700 24013G20KT P6SM SKC
     FM192000 29018G26KT P6SM SKC
     FM200100 33008KT P6SM SKC=

USA.gov is the U.S. government's official web portal to all federal, state and local government web resources and services.